createdAt,value
2023-11-18T00:00:29.883Z,31.25
2023-11-18T00:01:32.867Z,32.50
2023-11-18T00:02:35.191Z,34.75
2023-11-18T00:03:37.892Z,26.00
2023-11-18T00:04:39.436Z,29.75
2023-11-18T00:05:43.261Z,26.50
2023-11-18T00:06:45.015Z,30.25
2023-11-18T00:07:46.500Z,30.75
2023-11-18T00:08:48.951Z,28.75
2023-11-18T00:09:50.441Z,28.75
2023-11-18T00:10:52.969Z,29.25
2023-11-18T00:11:54.897Z,30.00
2023-11-18T00:12:57.343Z,29.50
2023-11-18T00:13:58.842Z,34.50
2023-11-18T00:15:01.291Z,29.25
2023-11-18T00:16:02.876Z,34.00
2023-11-18T00:17:05.536Z,30.50
2023-11-18T00:18:08.060Z,32.75
2023-11-18T00:19:10.693Z,31.50
2023-11-18T00:20:13.914Z,30.25
2023-11-18T00:21:17.891Z,35.75
2023-11-18T00:22:19.412Z,32.00
2023-11-18T00:23:22.379Z,35.25
2023-11-18T00:24:24.710Z,34.50
2023-11-18T00:25:27.222Z,34.75
2023-11-18T00:26:28.748Z,30.25
2023-11-18T00:27:31.211Z,26.25
2023-11-18T00:28:33.396Z,31.75
2023-11-18T00:29:34.890Z,36.50
2023-11-18T00:30:37.334Z,37.75
2023-11-18T00:31:38.946Z,33.00
2023-11-18T00:32:40.754Z,30.50
2023-11-18T00:33:43.439Z,37.25
2023-11-18T00:34:45.754Z,37.75
2023-11-18T00:35:48.230Z,35.75
2023-11-18T00:36:51.034Z,24.00
2023-11-18T00:37:53.511Z,24.25
2023-11-18T00:38:54.993Z,24.00
2023-11-18T00:39:56.475Z,26.50
2023-11-18T00:40:58.946Z,28.25
2023-11-18T00:42:00.456Z,28.50
2023-11-18T00:43:03.693Z,19.50
2023-11-18T00:44:05.347Z,20.25
2023-11-18T00:45:08.432Z,24.00
2023-11-18T00:46:10.021Z,21.50
2023-11-18T00:47:12.556Z,34.50
2023-11-18T00:48:14.108Z,33.00
2023-11-18T00:49:16.899Z,33.25
2023-11-18T00:50:18.538Z,26.75
2023-11-18T00:51:21.015Z,32.25
2023-11-18T00:52:23.854Z,25.50
2023-11-18T00:53:26.493Z,28.00
2023-11-18T00:54:28.006Z,21.25
2023-11-18T00:55:30.445Z,26.00
2023-11-18T00:56:31.925Z,23.00
2023-11-18T00:57:34.346Z,20.00
2023-11-18T00:58:40.175Z,27.25
2023-11-18T00:59:45.525Z,23.25
2023-11-18T01:00:46.984Z,22.50
2023-11-18T01:01:50.120Z,26.00
2023-11-18T01:02:52.226Z,23.25
2023-11-18T01:03:55.396Z,28.50
2023-11-18T01:04:56.959Z,22.75
2023-11-18T01:05:59.531Z,24.75
2023-11-18T01:07:01.057Z,27.25
2023-11-18T01:08:06.289Z,26.50
2023-11-18T01:09:08.448Z,29.25
2023-11-18T01:10:12.160Z,34.25
2023-11-18T01:11:16.483Z,24.25
2023-11-18T01:12:18.937Z,33.25
2023-11-18T01:13:20.397Z,32.75
2023-11-18T01:14:24.197Z,26.50
2023-11-18T01:15:25.673Z,25.75
2023-11-18T01:16:29.489Z,26.75
2023-11-18T01:17:32.377Z,25.75
2023-11-18T01:18:34.983Z,27.75
2023-11-18T01:19:36.556Z,24.75
2023-11-18T01:20:39.019Z,24.00
2023-11-18T01:21:40.522Z,29.75
2023-11-18T01:22:44.378Z,29.50
2023-11-18T01:23:47.242Z,28.25
2023-11-18T01:24:49.661Z,39.00
2023-11-18T01:25:52.264Z,31.00
2023-11-18T01:26:54.788Z,38.00
2023-11-18T01:27:56.261Z,28.25
2023-11-18T01:28:58.750Z,22.25
2023-11-18T01:30:00.667Z,31.75
2023-11-18T01:31:02.201Z,25.00
2023-11-18T01:32:09.881Z,24.50
2023-11-18T01:33:11.500Z,19.25
2023-11-18T01:34:13.406Z,24.25
2023-11-18T01:35:15.882Z,17.50
2023-11-18T01:36:18.864Z,21.50
2023-11-18T01:37:22.541Z,23.75
2023-11-18T01:38:23.993Z,22.00
2023-11-18T01:39:29.332Z,21.50
2023-11-18T01:40:32.088Z,26.25
2023-11-18T01:41:34.565Z,23.75
2023-11-18T01:42:36.033Z,24.75
2023-11-18T01:43:38.548Z,25.50
2023-11-18T01:44:40.148Z,27.00
2023-11-18T01:45:42.909Z,24.25
2023-11-18T01:46:46.166Z,20.50
2023-11-18T01:47:49.757Z,23.50
2023-11-18T01:48:52.563Z,33.75
2023-11-18T01:49:55.055Z,27.25
2023-11-18T01:50:57.181Z,31.75
2023-11-18T01:52:00.558Z,30.75
2023-11-18T01:53:02.138Z,31.00
2023-11-18T01:54:05.774Z,25.00
2023-11-18T01:55:09.404Z,32.25
2023-11-18T01:56:13.516Z,24.75
2023-11-18T01:57:17.101Z,29.50
2023-11-18T01:58:20.961Z,24.00
2023-11-18T01:59:22.415Z,30.00
2023-11-18T02:00:25.065Z,26.00
2023-11-18T02:01:26.765Z,28.50
2023-11-18T02:02:28.462Z,24.75
2023-11-18T02:03:31.343Z,25.00
2023-11-18T02:04:33.036Z,22.75
2023-11-18T02:05:35.676Z,21.75
2023-11-18T02:06:37.290Z,25.00
2023-11-18T02:07:39.931Z,31.25
2023-11-18T02:08:42.510Z,25.75
2023-11-18T02:09:45.028Z,21.75
2023-11-18T02:10:48.760Z,20.00
2023-11-18T02:11:53.392Z,21.00
2023-11-18T02:12:57.629Z,20.00
2023-11-18T02:14:00.187Z,30.75
2023-11-18T02:15:02.738Z,21.00
2023-11-18T02:16:04.583Z,26.00
2023-11-18T02:17:06.483Z,21.00
2023-11-18T02:18:10.910Z,25.25
2023-11-18T02:19:17.175Z,22.75
2023-11-18T02:20:22.239Z,29.75
2023-11-18T02:21:24.537Z,24.00
2023-11-18T02:22:27.233Z,24.25
2023-11-18T02:23:28.842Z,26.50
2023-11-18T02:24:32.065Z,23.25
2023-11-18T02:25:35.342Z,21.50
2023-11-18T02:26:38.221Z,27.75
2023-11-18T02:27:39.794Z,31.25
2023-11-18T02:28:42.297Z,26.75
2023-11-18T02:29:44.234Z,23.00
2023-11-18T02:30:47.252Z,25.50
2023-11-18T02:31:48.739Z,23.25
2023-11-18T02:32:54.908Z,22.75
2023-11-18T02:33:59.049Z,22.75
2023-11-18T02:35:06.333Z,23.25
2023-11-18T02:36:10.234Z,23.25
2023-11-18T02:37:13.349Z,17.75
2023-11-18T02:38:15.429Z,22.75
2023-11-18T02:39:22.469Z,20.75
2023-11-18T02:40:25.770Z,23.50
2023-11-18T02:41:30.497Z,24.00
2023-11-18T02:42:34.328Z,28.00
2023-11-18T02:43:37.079Z,30.00
2023-11-18T02:44:38.584Z,27.00
2023-11-18T02:45:42.415Z,26.25
2023-11-18T02:46:44.766Z,24.75
2023-11-18T02:47:47.408Z,17.50
2023-11-18T02:48:48.872Z,18.75
2023-11-18T02:49:55.457Z,22.25
2023-11-18T02:50:56.984Z,19.25
2023-11-18T02:51:59.413Z,22.75
2023-11-18T02:53:00.980Z,22.50
2023-11-18T02:54:03.497Z,19.00
2023-11-18T02:55:07.500Z,17.75
2023-11-18T02:56:10.627Z,19.00
2023-11-18T02:57:14.907Z,21.00
2023-11-18T02:58:19.137Z,20.25
2023-11-18T02:59:20.604Z,19.75
2023-11-18T03:00:23.947Z,22.00
2023-11-18T03:01:26.429Z,20.50
2023-11-18T03:02:31.696Z,20.75
2023-11-18T03:03:33.557Z,22.50
2023-11-18T03:04:36.082Z,21.75
2023-11-18T03:05:37.693Z,17.75
2023-11-18T03:06:41.630Z,22.00
2023-11-18T08:25:09.658Z,34.75
2023-11-18T08:26:12.512Z,27.00
2023-11-18T08:27:14.970Z,29.00
2023-11-18T08:28:17.366Z,28.75
2023-11-18T08:29:19.859Z,30.75
2023-11-18T08:30:21.997Z,26.75
2023-11-18T08:31:24.616Z,29.25
2023-11-18T08:32:26.145Z,29.50
2023-11-18T08:33:29.937Z,26.25
2023-11-18T08:34:31.514Z,28.25
2023-11-18T08:35:33.023Z,23.00
2023-11-18T08:36:35.472Z,29.50
2023-11-18T08:37:38.173Z,34.75
2023-11-18T08:38:41.361Z,23.25
2023-11-18T08:39:42.825Z,29.25
2023-11-18T08:40:49.514Z,25.25
2023-11-18T08:41:51.712Z,26.25
2023-11-18T08:42:56.442Z,29.75
2023-11-18T08:44:07.861Z,23.00
2023-11-18T08:45:17.454Z,26.00
2023-11-18T08:46:20.012Z,26.50
2023-11-18T08:47:22.103Z,24.50
2023-11-18T08:48:24.700Z,34.00
2023-11-18T08:49:26.354Z,24.75
2023-11-18T08:50:28.842Z,23.25
2023-11-18T08:51:34.940Z,28.00
2023-11-18T08:52:37.943Z,27.75
2023-11-18T08:53:42.986Z,29.00
2023-11-18T08:55:06.016Z,23.50
2023-11-18T08:56:14.768Z,28.50
2023-11-18T08:57:26.285Z,23.75
2023-11-18T08:58:29.299Z,23.25
2023-11-18T08:59:32.468Z,21.00
2023-11-18T09:00:49.324Z,24.50
2023-11-18T09:01:55.498Z,28.75
2023-11-18T09:03:02.377Z,29.25
2023-11-18T09:04:05.266Z,30.25
2023-11-18T09:05:13.882Z,27.00
2023-11-18T09:06:19.970Z,25.50
2023-11-18T09:07:22.763Z,23.00
2023-11-18T09:08:28.026Z,34.75
2023-11-18T09:09:30.558Z,28.75
2023-11-18T09:10:32.022Z,23.50
2023-11-18T09:11:34.903Z,27.00
2023-11-18T09:12:37.361Z,28.25
2023-11-18T09:13:39.968Z,24.75
2023-11-18T09:14:43.896Z,26.00
2023-11-18T09:15:45.345Z,31.25
2023-11-18T09:16:47.815Z,24.00
2023-11-18T09:17:49.815Z,29.25
2023-11-18T09:18:52.559Z,27.00
2023-11-18T09:19:54.308Z,25.75
2023-11-18T09:20:55.851Z,27.25
2023-11-18T09:21:58.326Z,25.75
2023-11-18T09:22:59.844Z,22.50
2023-11-18T09:24:05.660Z,20.75
2023-11-18T09:25:10.203Z,25.75
2023-11-18T09:26:12.685Z,23.25
2023-11-18T09:27:15.522Z,22.75
2023-11-18T09:28:18.000Z,26.00
2023-11-18T09:29:19.683Z,24.50
2023-11-18T09:30:22.194Z,24.50
2023-11-18T09:31:23.662Z,26.75
2023-11-18T09:32:27.314Z,19.75
2023-11-18T09:33:34.031Z,21.25
2023-11-18T09:34:36.663Z,25.00
2023-11-18T09:35:38.160Z,28.25
2023-11-18T09:36:40.880Z,29.25
2023-11-18T09:37:43.364Z,26.75
2023-11-18T09:38:49.157Z,30.25
2023-11-18T09:39:53.769Z,21.25
2023-11-18T09:40:55.334Z,25.50
2023-11-18T09:41:58.402Z,24.75
2023-11-18T09:43:10.252Z,24.50
2023-11-18T09:44:13.182Z,22.50
2023-11-18T09:45:20.893Z,24.25
2023-11-18T09:46:25.084Z,21.00
2023-11-18T09:47:28.650Z,31.25
2023-11-18T09:48:39.687Z,28.25
2023-11-18T09:49:41.619Z,26.75
2023-11-18T09:50:45.504Z,21.75
2023-11-18T09:51:48.569Z,22.25
2023-11-18T09:52:53.219Z,20.50
2023-11-18T09:53:55.424Z,21.50
2023-11-18T09:54:59.853Z,24.75
2023-11-18T09:56:04.287Z,26.50
2023-11-18T09:57:16.954Z,25.25
2023-11-18T09:58:25.123Z,19.00
2023-11-18T09:59:31.704Z,21.00
2023-11-18T10:00:34.030Z,24.25
2023-11-18T10:01:39.165Z,21.50
2023-11-18T10:02:41.065Z,21.50
2023-11-18T10:03:46.933Z,21.75
2023-11-18T10:04:51.063Z,22.25
2023-11-18T10:05:55.820Z,19.00
2023-11-18T10:06:57.820Z,17.25
2023-11-18T10:08:00.762Z,18.25
2023-11-18T10:09:16.054Z,17.50
2023-11-18T10:10:21.557Z,18.75
2023-11-18T10:11:23.737Z,16.50
2023-11-18T10:12:27.933Z,18.75
2023-11-18T10:13:31.546Z,16.00
2023-11-18T10:14:34.445Z,18.25
2023-11-18T10:15:36.060Z,21.25
2023-11-18T10:16:39.339Z,17.00
2023-11-18T10:17:56.020Z,14.50
2023-11-18T10:19:02.150Z,16.00
2023-11-18T10:20:13.835Z,13.00
2023-11-18T10:21:19.218Z,17.00
2023-11-18T10:22:24.844Z,13.25
2023-11-18T10:23:28.748Z,13.75
2023-11-18T10:24:34.364Z,17.75
2023-11-18T10:25:36.402Z,13.00
2023-11-18T10:26:39.428Z,14.75
2023-11-18T10:27:40.873Z,10.75
2023-11-18T10:28:44.691Z,15.75
2023-11-18T10:29:46.143Z,15.25
2023-11-18T10:30:49.005Z,14.00
2023-11-18T10:31:50.714Z,20.00
2023-11-18T10:33:06.174Z,20.00
2023-11-18T10:34:08.434Z,15.00
2023-11-18T10:35:12.155Z,15.00
2023-11-18T10:36:23.374Z,14.00
2023-11-18T10:37:25.842Z,13.25
2023-11-18T10:38:27.378Z,14.00
2023-11-18T10:39:32.229Z,15.00
2023-11-18T10:40:37.551Z,17.25
2023-11-18T10:41:43.570Z,15.00
2023-11-18T10:42:49.924Z,14.00
2023-11-18T10:43:53.576Z,15.00
2023-11-18T10:44:56.343Z,15.50
2023-11-18T10:46:12.704Z,16.75
2023-11-18T10:47:18.239Z,13.25
2023-11-18T10:48:21.309Z,15.75
2023-11-18T10:49:22.811Z,15.25
2023-11-18T10:50:25.334Z,16.75
2023-11-18T10:51:27.831Z,15.75
2023-11-18T10:52:32.460Z,18.25
2023-11-18T10:53:34.091Z,16.75
2023-11-18T10:54:36.538Z,15.50
2023-11-18T10:55:38.154Z,20.50
2023-11-18T10:56:40.596Z,13.00
2023-11-18T10:57:43.729Z,15.00
2023-11-18T10:58:47.254Z,18.50
2023-11-18T11:00:02.415Z,18.50
2023-11-18T11:01:06.486Z,14.00
2023-11-18T11:02:22.638Z,17.25
2023-11-18T11:03:25.738Z,18.75
2023-11-18T11:04:27.242Z,16.00
2023-11-18T11:05:33.302Z,13.75
2023-11-18T11:06:35.689Z,13.50
2023-11-18T11:07:38.424Z,15.25
2023-11-18T11:08:42.242Z,13.00
2023-11-18T11:09:47.157Z,14.25
2023-11-18T11:10:49.653Z,14.50
2023-11-18T11:11:54.081Z,14.50
2023-11-18T11:12:56.004Z,15.75
2023-11-18T11:13:58.730Z,17.00
2023-11-18T11:15:05.168Z,16.75
2023-11-18T11:16:08.800Z,15.50
2023-11-18T11:17:16.412Z,15.50
2023-11-18T11:18:24.399Z,16.00
2023-11-18T11:19:27.339Z,16.75
2023-11-18T11:20:33.188Z,18.00
2023-11-18T11:21:36.134Z,15.00
2023-11-18T11:22:40.381Z,21.00
2023-11-18T11:23:45.258Z,16.00
2023-11-18T11:24:51.812Z,18.00
2023-11-18T11:25:56.632Z,15.00
2023-11-18T11:27:05.488Z,16.75
2023-11-18T11:28:11.363Z,15.75
2023-11-18T11:29:17.070Z,15.75
2023-11-18T11:30:23.230Z,16.25
2023-11-18T11:31:30.835Z,20.25
2023-11-18T11:32:33.400Z,20.00
2023-11-18T11:33:42.234Z,20.75
2023-11-18T11:34:46.590Z,18.00
2023-11-18T11:35:50.803Z,16.50
2023-11-18T11:36:53.819Z,17.25
2023-11-18T11:37:58.702Z,17.00
2023-11-18T11:39:00.584Z,16.00
2023-11-18T11:40:09.232Z,14.75
2023-11-18T11:41:10.842Z,14.75
2023-11-18T11:42:15.442Z,18.00
2023-11-18T11:43:22.436Z,17.50
2023-11-18T11:44:30.846Z,17.75
2023-11-18T11:45:35.642Z,18.50
2023-11-18T11:46:38.522Z,18.50
2023-11-18T11:47:47.189Z,19.75
2023-11-18T11:48:49.866Z,16.75
2023-11-18T11:49:53.617Z,20.00
2023-11-18T11:50:57.032Z,20.25
2023-11-18T11:52:06.762Z,20.00
2023-11-18T11:53:09.072Z,19.50
2023-11-18T11:54:16.359Z,21.75
2023-11-18T11:55:21.104Z,17.25
2023-11-18T11:56:25.542Z,18.25
2023-11-18T11:57:31.316Z,19.25
2023-11-18T11:58:34.808Z,18.00
2023-11-18T11:59:38.252Z,22.25
2023-11-18T12:00:43.833Z,14.00
2023-11-18T12:01:51.237Z,17.50
2023-11-18T12:02:55.896Z,19.75
2023-11-18T12:04:04.890Z,16.50
2023-11-18T12:05:08.055Z,22.00
2023-11-18T12:06:12.556Z,14.75
2023-11-18T12:07:20.846Z,16.25
2023-11-18T12:08:23.140Z,15.00
2023-11-18T12:09:33.966Z,16.25
2023-11-18T12:10:36.703Z,20.00
2023-11-18T12:11:40.599Z,21.25
2023-11-18T12:12:43.335Z,16.25
2023-11-18T12:13:59.740Z,20.75
2023-11-18T12:15:13.021Z,17.75
2023-11-18T12:16:21.942Z,16.00
2023-11-18T12:17:25.543Z,16.75
2023-11-18T12:18:27.213Z,20.00
2023-11-18T12:19:33.699Z,19.25
2023-11-18T12:20:43.543Z,19.00
2023-11-18T12:21:57.806Z,17.00
2023-11-18T12:23:15.263Z,18.50
2023-11-18T12:24:19.730Z,17.25
2023-11-18T12:25:40.427Z,20.25
2023-11-18T12:26:42.020Z,17.00
2023-11-18T12:27:47.931Z,17.75
2023-11-18T12:28:50.471Z,22.25
2023-11-18T12:29:52.071Z,19.50
2023-11-18T12:30:53.722Z,16.75
2023-11-18T12:31:58.752Z,23.00
2023-11-18T12:33:02.055Z,22.00
2023-11-18T12:34:11.468Z,20.00
2023-11-18T12:35:18.353Z,18.00
2023-11-18T12:36:32.050Z,16.00
2023-11-18T12:37:47.141Z,22.75
2023-11-18T12:39:22.362Z,19.25
2023-11-18T12:40:47.892Z,19.75
2023-11-18T12:41:51.169Z,17.00
2023-11-18T12:43:05.980Z,16.75
2023-11-18T12:44:18.589Z,21.50
2023-11-18T12:45:28.912Z,19.00
2023-11-18T12:46:51.951Z,20.00
2023-11-18T12:47:56.388Z,15.00
2023-11-18T12:48:58.185Z,18.25
2023-11-18T12:50:01.613Z,15.50
2023-11-18T12:51:03.312Z,20.00
2023-11-18T12:52:09.198Z,23.75
2023-11-18T12:53:11.293Z,26.25
2023-11-18T12:54:14.257Z,23.00
2023-11-18T12:55:20.093Z,19.25
2023-11-18T12:56:21.784Z,21.00
2023-11-18T12:57:24.490Z,16.00
2023-11-18T12:58:26.016Z,20.75
2023-11-18T12:59:27.610Z,26.00
2023-11-18T13:00:35.200Z,17.50
2023-11-18T13:01:37.427Z,18.00
2023-11-18T13:02:40.388Z,25.00
2023-11-18T13:03:43.644Z,15.50
2023-11-18T13:04:48.390Z,21.00
2023-11-18T13:05:50.942Z,19.00
2023-11-18T13:06:54.295Z,19.75
2023-11-18T13:07:55.901Z,16.50
2023-11-18T13:08:59.188Z,17.75
2023-11-18T13:10:01.092Z,20.75
2023-11-18T13:11:05.927Z,18.75
2023-11-18T13:12:10.030Z,24.25
2023-11-18T13:13:14.936Z,20.25
2023-11-18T13:14:17.854Z,18.00
2023-11-18T13:15:20.486Z,18.50
2023-11-18T13:16:22.785Z,21.25
2023-11-18T13:17:27.500Z,19.00
2023-11-18T13:18:29.556Z,24.50
2023-11-18T13:19:33.508Z,22.00
2023-11-18T13:20:36.774Z,20.00
2023-11-18T13:21:38.260Z,20.50
2023-11-18T13:22:46.420Z,17.50
2023-11-18T13:23:51.348Z,17.00
2023-11-18T13:24:53.815Z,21.00
2023-11-18T13:25:55.950Z,20.50
2023-11-18T13:26:57.945Z,15.75
2023-11-18T13:28:00.529Z,24.00
2023-11-18T13:29:03.487Z,25.00
2023-11-18T13:30:06.626Z,16.00
2023-11-18T13:31:10.636Z,15.00
2023-11-18T13:32:13.705Z,20.50
2023-11-18T13:33:15.232Z,18.00
2023-11-18T13:34:17.960Z,17.50
2023-11-18T13:35:24.796Z,16.00
2023-11-18T13:36:27.355Z,16.25
2023-11-18T13:37:28.823Z,16.25
2023-11-18T13:38:31.294Z,15.50
2023-11-18T13:39:32.768Z,18.00
2023-11-18T13:40:43.856Z,15.50
2023-11-18T13:41:46.083Z,15.00
2023-11-18T13:42:48.551Z,17.75
2023-11-18T13:43:50.110Z,18.75
2023-11-18T13:44:53.998Z,19.00
2023-11-18T13:45:57.767Z,16.75
2023-11-18T13:47:00.372Z,17.00
2023-11-18T13:48:02.993Z,17.25
2023-11-18T13:49:06.964Z,18.25
2023-11-18T13:50:09.660Z,16.00
2023-11-18T13:51:14.935Z,15.50
2023-11-18T13:52:17.992Z,18.25
2023-11-18T13:53:20.576Z,19.75
2023-11-18T13:54:22.131Z,14.00
2023-11-18T13:55:26.812Z,15.75
2023-11-18T13:56:29.623Z,17.50
2023-11-18T13:57:31.400Z,15.25
2023-11-18T13:58:32.879Z,14.00
2023-11-18T13:59:35.567Z,16.25
2023-11-18T14:00:37.059Z,13.00
2023-11-18T14:01:39.566Z,13.00
2023-11-18T14:02:41.171Z,14.25
2023-11-18T14:03:44.769Z,13.75
2023-11-18T14:04:47.993Z,14.50
2023-11-18T14:05:52.838Z,14.00
2023-11-18T14:06:57.641Z,14.75
2023-11-18T14:08:01.271Z,11.00
2023-11-18T14:09:02.929Z,15.75
2023-11-18T14:10:09.097Z,12.00
2023-11-18T14:11:15.338Z,14.25
2023-11-18T14:12:20.476Z,13.00
2023-11-18T14:13:23.165Z,14.00
2023-11-18T14:14:26.267Z,9.00
2023-11-18T14:15:27.820Z,9.75
2023-11-18T14:16:29.361Z,11.00
2023-11-18T14:17:31.952Z,14.00
2023-11-18T14:18:33.570Z,12.00
2023-11-18T14:19:36.384Z,11.00
2023-11-18T14:20:37.941Z,11.00
2023-11-18T14:21:40.472Z,13.50
2023-11-18T14:22:44.184Z,10.50
2023-11-18T14:23:46.749Z,14.00
2023-11-18T14:24:48.475Z,14.25
2023-11-18T14:25:51.106Z,14.00
2023-11-18T14:26:52.627Z,13.50
2023-11-18T14:27:54.564Z,15.00
2023-11-18T14:28:57.098Z,11.00
2023-11-18T14:29:59.465Z,12.00
2023-11-18T14:31:01.985Z,12.50
2023-11-18T14:32:04.869Z,14.75
2023-11-18T14:33:08.040Z,15.75
2023-11-18T14:34:11.162Z,12.50
2023-11-18T14:35:18.000Z,12.00
2023-11-18T14:36:21.100Z,13.00
2023-11-18T14:37:22.562Z,14.75
2023-11-18T14:38:26.712Z,12.50
2023-11-18T14:39:28.805Z,14.50
2023-11-18T14:40:30.242Z,11.00
2023-11-18T14:41:32.794Z,13.00
2023-11-18T14:42:34.817Z,15.75
2023-11-18T14:43:36.941Z,11.00
2023-11-18T14:44:39.408Z,13.00
2023-11-18T14:45:40.875Z,13.00
2023-11-18T14:46:43.411Z,11.00
2023-11-18T14:47:46.328Z,15.25
2023-11-18T14:48:49.590Z,13.00
2023-11-18T14:49:51.087Z,12.25
2023-11-18T14:50:53.589Z,10.25
2023-11-18T14:51:55.062Z,10.25
2023-11-18T14:53:01.017Z,13.00
2023-11-18T14:54:06.671Z,9.50
2023-11-18T14:55:13.176Z,14.00
2023-11-18T14:56:15.953Z,14.75
2023-11-18T14:57:17.415Z,11.25
2023-11-18T14:58:19.893Z,13.50
2023-11-18T14:59:23.605Z,9.25
2023-11-18T15:00:27.801Z,14.50
2023-11-18T15:01:30.202Z,9.00
2023-11-18T15:02:32.843Z,10.00
2023-11-18T15:03:34.513Z,13.50
2023-11-18T15:04:39.025Z,14.75
2023-11-18T15:05:40.739Z,13.00
2023-11-18T15:06:43.365Z,12.00
2023-11-18T15:07:46.249Z,12.75
2023-11-18T15:08:48.820Z,14.00
2023-11-18T15:09:52.803Z,11.00
2023-11-18T15:10:55.350Z,11.00
2023-11-18T15:11:57.293Z,9.75
2023-11-18T15:13:01.842Z,15.50
2023-11-18T15:14:04.310Z,13.75
2023-11-18T15:15:07.397Z,16.50
2023-11-18T15:16:09.160Z,15.00
2023-11-18T15:17:14.735Z,10.00
2023-11-18T15:18:18.406Z,10.25
2023-11-18T15:19:21.080Z,14.50
2023-11-18T15:20:24.487Z,14.50
2023-11-18T15:21:26.032Z,11.75
2023-11-18T15:22:28.557Z,11.75
2023-11-18T15:23:30.167Z,16.25
2023-11-18T15:24:33.417Z,12.00
2023-11-18T15:25:36.311Z,11.25
2023-11-18T15:26:38.843Z,16.50
2023-11-18T15:27:44.285Z,13.00
2023-11-18T15:28:46.810Z,20.25
2023-11-18T15:29:50.569Z,17.50
2023-11-18T15:30:53.104Z,11.25
2023-11-18T15:31:56.033Z,12.25
2023-11-18T15:32:58.527Z,10.50
2023-11-18T15:34:01.129Z,15.25
2023-11-18T15:35:04.163Z,13.00
2023-11-18T15:36:08.482Z,11.50
2023-11-18T15:37:11.045Z,16.00
2023-11-18T15:38:17.865Z,11.50
2023-11-18T15:39:21.253Z,10.00
2023-11-18T15:40:26.504Z,14.50
2023-11-18T15:41:31.752Z,11.00
2023-11-18T15:42:37.518Z,14.25
2023-11-18T15:43:40.220Z,12.75
2023-11-18T15:44:41.686Z,18.00
2023-11-18T15:45:45.795Z,16.00
2023-11-18T15:46:49.017Z,13.00
2023-11-18T15:47:51.703Z,10.75
2023-11-18T15:48:53.220Z,14.50
2023-11-18T15:49:55.822Z,14.00
2023-11-18T15:50:59.171Z,15.50
2023-11-18T15:52:03.526Z,14.00
2023-11-18T15:53:06.943Z,11.50
2023-11-18T15:54:09.409Z,11.00
2023-11-18T15:55:11.126Z,14.00
2023-11-18T15:56:13.704Z,10.25
2023-11-18T15:57:17.346Z,12.00
2023-11-18T15:58:22.364Z,12.00
2023-11-18T15:59:26.388Z,12.00
2023-11-18T16:00:27.992Z,14.75
2023-11-18T16:01:30.489Z,13.00
2023-11-18T16:02:32.087Z,11.00
2023-11-18T16:03:35.336Z,14.00
2023-11-18T16:04:37.603Z,12.50
2023-11-18T16:05:41.047Z,14.00
2023-11-18T16:06:42.598Z,14.75
2023-11-18T16:07:44.439Z,12.75
2023-11-18T16:08:50.501Z,14.75
2023-11-18T16:09:52.006Z,10.00
2023-11-18T16:10:55.460Z,11.50
2023-11-18T16:11:57.040Z,9.75
2023-11-18T16:13:00.297Z,9.75
2023-11-18T16:14:02.811Z,12.25
2023-11-18T16:15:07.016Z,11.75
2023-11-18T16:16:11.392Z,13.00
2023-11-18T16:17:13.000Z,10.75
2023-11-18T16:18:15.527Z,11.00
2023-11-18T16:19:17.536Z,13.50
2023-11-18T16:20:20.274Z,14.75
2023-11-18T16:21:22.616Z,14.00
2023-11-18T16:22:25.431Z,10.25
2023-11-18T16:23:30.897Z,16.25
2023-11-18T16:24:33.672Z,12.50
2023-11-18T16:25:36.757Z,13.00
2023-11-18T16:26:41.412Z,15.25
2023-11-18T16:27:42.865Z,15.00
2023-11-18T16:28:46.697Z,10.25
2023-11-18T16:29:48.157Z,11.00
2023-11-18T16:30:52.083Z,13.50
2023-11-18T16:31:53.639Z,12.50
2023-11-18T16:32:55.348Z,13.00
2023-11-18T16:33:57.868Z,11.00
2023-11-18T16:34:59.562Z,8.00
2023-11-18T16:36:02.018Z,10.50
2023-11-18T16:37:03.580Z,11.00
2023-11-18T16:38:06.712Z,12.25
2023-11-18T16:39:08.482Z,15.75
2023-11-18T16:40:11.148Z,7.50
2023-11-18T16:41:13.869Z,14.25
2023-11-18T16:42:15.388Z,13.25
2023-11-18T16:43:17.849Z,14.00
2023-11-18T16:44:20.715Z,11.75
2023-11-18T16:45:22.294Z,13.00
2023-11-18T16:46:25.809Z,11.00
2023-11-18T16:47:27.491Z,11.50
2023-11-18T16:48:30.069Z,12.50
2023-11-18T16:49:31.591Z,10.25
2023-11-18T16:50:34.088Z,11.00
2023-11-18T16:51:35.577Z,9.00
2023-11-18T16:52:40.151Z,12.25
2023-11-18T16:53:41.692Z,11.00
2023-11-18T16:54:44.177Z,11.00
2023-11-18T16:55:46.021Z,12.25
2023-11-18T16:56:48.551Z,8.75
2023-11-18T16:57:53.647Z,9.00
2023-11-18T16:58:57.312Z,8.50
2023-11-18T17:00:00.299Z,8.00
2023-11-18T17:01:05.350Z,10.75
2023-11-18T17:02:07.182Z,13.75
2023-11-18T17:03:10.819Z,9.25
2023-11-18T17:04:12.561Z,10.00
2023-11-18T17:05:15.088Z,8.50
2023-11-18T17:06:16.751Z,8.75
2023-11-18T17:07:19.241Z,9.00
2023-11-18T17:08:20.884Z,9.00
2023-11-18T17:09:23.538Z,8.75
2023-11-18T17:10:25.031Z,9.00
2023-11-18T17:11:27.809Z,9.75
2023-11-18T17:12:29.557Z,10.50
2023-11-18T17:13:33.997Z,11.00
2023-11-18T17:14:35.496Z,8.00
2023-11-18T17:15:39.531Z,8.00
2023-11-18T17:16:41.797Z,9.00
2023-11-18T17:17:44.649Z,9.50
2023-11-18T17:18:46.273Z,8.50
2023-11-18T17:19:48.737Z,11.00
2023-11-18T17:20:50.545Z,8.00
2023-11-18T17:21:55.009Z,7.50
2023-11-18T17:22:56.672Z,10.25
2023-11-18T17:23:59.552Z,10.00
2023-11-18T17:25:01.296Z,9.25
2023-11-18T17:26:06.279Z,11.00
2023-11-18T17:27:08.036Z,8.25
2023-11-18T17:28:10.691Z,10.75
2023-11-18T17:29:14.806Z,9.75
2023-11-18T17:30:18.731Z,9.75
2023-11-18T17:31:21.652Z,11.50
2023-11-18T17:32:24.242Z,8.75
2023-11-18T17:33:26.661Z,7.50
2023-11-18T17:34:30.651Z,9.00
2023-11-18T17:35:32.183Z,6.00
2023-11-18T17:36:34.638Z,8.50
2023-11-18T17:37:36.171Z,7.00
2023-11-18T17:38:38.701Z,8.50
2023-11-18T17:39:40.171Z,8.00
2023-11-18T17:40:43.119Z,8.75
2023-11-18T17:41:44.727Z,6.00
2023-11-18T17:42:47.331Z,7.50
2023-11-18T17:43:48.924Z,8.25
2023-11-18T17:44:51.544Z,6.00
2023-11-18T17:45:55.288Z,6.00
2023-11-18T17:46:59.168Z,4.00
2023-11-18T17:48:00.766Z,6.00
2023-11-18T17:49:05.622Z,8.00
2023-11-18T17:50:10.292Z,8.00
2023-11-18T17:51:12.994Z,6.50
2023-11-18T17:52:15.379Z,7.50
2023-11-18T17:53:17.907Z,6.00
2023-11-18T17:54:19.369Z,6.00
2023-11-18T17:55:22.049Z,7.00
2023-11-18T17:56:23.545Z,4.00
2023-11-18T17:57:25.077Z,5.50
2023-11-18T17:58:28.034Z,7.00
2023-11-18T17:59:29.758Z,4.25
2023-11-18T18:00:31.325Z,6.75
2023-11-18T18:01:33.888Z,6.00
2023-11-18T18:02:37.751Z,6.00
2023-11-18T18:03:40.452Z,4.25
2023-11-18T18:04:41.987Z,6.00
2023-11-18T18:05:44.956Z,7.00
2023-11-18T18:06:46.430Z,4.00
2023-11-18T18:07:49.140Z,5.00
2023-11-18T18:08:50.827Z,5.25
2023-11-18T18:09:52.311Z,6.00
2023-11-18T18:10:54.787Z,6.50
2023-11-18T18:11:56.245Z,8.00
2023-11-18T18:12:58.750Z,8.50
2023-11-18T18:14:00.250Z,4.00
2023-11-18T18:15:04.897Z,3.75
2023-11-18T18:16:07.164Z,6.00
2023-11-18T18:17:09.828Z,6.00
2023-11-18T18:18:12.873Z,4.00
2023-11-18T18:19:15.404Z,4.00
2023-11-18T18:20:20.957Z,4.00
2023-11-18T18:21:23.483Z,6.00
2023-11-18T18:22:25.031Z,6.00
2023-11-18T18:23:28.963Z,8.00
2023-11-18T18:24:30.781Z,4.00
2023-11-18T18:25:33.204Z,4.25
2023-11-18T18:26:34.810Z,3.75
2023-11-18T18:27:37.228Z,4.25
2023-11-18T18:28:38.844Z,4.00
2023-11-18T18:29:41.380Z,6.00
2023-11-18T18:30:42.987Z,3.75
2023-11-18T18:31:45.538Z,4.50
2023-11-18T18:32:48.009Z,6.00
2023-11-18T18:33:52.295Z,3.25
2023-11-18T18:34:53.770Z,4.00
2023-11-18T18:35:56.251Z,4.00
2023-11-18T18:36:57.704Z,5.50
2023-11-18T18:37:59.217Z,3.25
2023-11-18T18:39:01.750Z,4.50
2023-11-18T18:40:05.774Z,4.00
2023-11-18T18:41:08.385Z,4.00
2023-11-18T18:42:09.956Z,7.50
2023-11-18T18:43:12.446Z,7.75
2023-11-18T18:44:14.030Z,4.50
2023-11-18T18:45:16.570Z,6.00
2023-11-18T18:46:18.083Z,4.00
2023-11-18T18:47:22.058Z,4.00
2023-11-18T18:48:24.865Z,6.00
2023-11-18T18:49:27.740Z,4.00
2023-11-18T18:50:35.430Z,4.00
2023-11-18T18:51:36.980Z,4.00
2023-11-18T18:52:39.505Z,3.50
2023-11-18T18:53:41.042Z,5.50
2023-11-18T18:54:43.998Z,3.25
2023-11-18T18:55:45.616Z,4.00
2023-11-18T18:56:48.205Z,4.50
2023-11-18T18:57:49.702Z,6.00
2023-11-18T18:58:52.202Z,3.00
2023-11-18T18:59:53.776Z,4.00
2023-11-18T19:00:56.372Z,4.00